sensor_id;sensor_type;location;lat;lon;timestamp;pressure;altitude;pressure_sealevel;temperature;humidity
74905;BME280;63465;50.862;6.220;2023-06-14T00:01:25;99686.53;;;18.48;69.46
74905;BME280;63465;50.862;6.220;2023-06-14T00:03:51;99687.44;;;18.37;70.10
74905;BME280;63465;50.862;6.220;2023-06-14T00:06:17;99686.34;;;18.28;70.65
74905;BME280;63465;50.862;6.220;2023-06-14T00:08:43;99687.44;;;18.37;70.59
74905;BME280;63465;50.862;6.220;2023-06-14T00:11:08;99691.91;;;18.59;69.26
74905;BME280;63465;50.862;6.220;2023-06-14T00:13:34;99681.16;;;18.48;69.74
74905;BME280;63465;50.862;6.220;2023-06-14T00:15:59;99685.91;;;18.56;69.54
74905;BME280;63465;50.862;6.220;2023-06-14T00:18:24;99687.56;;;18.35;71.76
74905;BME280;63465;50.862;6.220;2023-06-14T00:20:50;99690.56;;;18.42;70.85
74905;BME280;63465;50.862;6.220;2023-06-14T00:23:17;99687.47;;;18.14;72.68
74905;BME280;63465;50.862;6.220;2023-06-14T00:25:42;99698.47;;;17.89;75.15
74905;BME280;63465;50.862;6.220;2023-06-14T00:28:07;99693.13;;;17.89;75.00
74905;BME280;63465;50.862;6.220;2023-06-14T00:30:33;99693.69;;;18.15;74.17
74905;BME280;63465;50.862;6.220;2023-06-14T00:32:58;99690.75;;;18.29;73.14
74905;BME280;63465;50.862;6.220;2023-06-14T00:35:24;99690.41;;;18.00;74.23
74905;BME280;63465;50.862;6.220;2023-06-14T00:37:50;99693.44;;;17.61;75.33
74905;BME280;63465;50.862;6.220;2023-06-14T00:40:15;99692.94;;;17.79;75.55
74905;BME280;63465;50.862;6.220;2023-06-14T00:42:41;99682.78;;;17.37;77.32
74905;BME280;63465;50.862;6.220;2023-06-14T00:45:06;99690.84;;;17.48;77.13
74905;BME280;63465;50.862;6.220;2023-06-14T00:47:32;99694.94;;;17.30;77.47
74905;BME280;63465;50.862;6.220;2023-06-14T00:49:58;99696.19;;;17.26;79.13
74905;BME280;63465;50.862;6.220;2023-06-14T00:52:24;99694.13;;;17.41;78.62
74905;BME280;63465;50.862;6.220;2023-06-14T00:54:49;99699.38;;;17.42;77.83
74905;BME280;63465;50.862;6.220;2023-06-14T00:57:15;99698.03;;;17.37;77.53
74905;BME280;63465;50.862;6.220;2023-06-14T00:59:46;99699.16;;;17.57;76.75
74905;BME280;63465;50.862;6.220;2023-06-14T01:02:12;99689.28;;;17.69;76.10
74905;BME280;63465;50.862;6.220;2023-06-14T01:04:40;99691.59;;;17.85;75.17
74905;BME280;63465;50.862;6.220;2023-06-14T01:07:31;99696.13;;;17.61;76.85
74905;BME280;63465;50.862;6.220;2023-06-14T01:10:23;99690.59;;;17.29;79.63
74905;BME280;63465;50.862;6.220;2023-06-14T01:13:10;99697.06;;;17.72;77.39
74905;BME280;63465;50.862;6.220;2023-06-14T01:15:36;99697.56;;;17.88;74.89
74905;BME280;63465;50.862;6.220;2023-06-14T01:18:03;99692.81;;;17.80;74.68
74905;BME280;63465;50.862;6.220;2023-06-14T01:20:31;99699.88;;;17.70;75.22
74905;BME280;63465;50.862;6.220;2023-06-14T01:22:57;99696.25;;;17.13;79.20
74905;BME280;63465;50.862;6.220;2023-06-14T01:25:23;99702.66;;;16.75;82.62
74905;BME280;63465;50.862;6.220;2023-06-14T01:27:52;99695.72;;;16.72;82.51
74905;BME280;63465;50.862;6.220;2023-06-14T01:30:20;99695.66;;;17.09;81.40
74905;BME280;63465;50.862;6.220;2023-06-14T01:32:47;99696.28;;;16.65;83.84
74905;BME280;63465;50.862;6.220;2023-06-14T01:35:12;99701.50;;;16.42;86.03
74905;BME280;63465;50.862;6.220;2023-06-14T01:37:39;99704.44;;;16.63;84.85
74905;BME280;63465;50.862;6.220;2023-06-14T01:40:06;99710.66;;;16.64;83.82
74905;BME280;63465;50.862;6.220;2023-06-14T01:42:34;99709.28;;;17.06;83.21
74905;BME280;63465;50.862;6.220;2023-06-14T01:45:02;99707.66;;;16.80;83.28
74905;BME280;63465;50.862;6.220;2023-06-14T01:47:28;99706.47;;;16.84;82.97
74905;BME280;63465;50.862;6.220;2023-06-14T01:49:54;99706.41;;;16.97;82.46
74905;BME280;63465;50.862;6.220;2023-06-14T01:52:19;99709.59;;;17.26;81.15
74905;BME280;63465;50.862;6.220;2023-06-14T01:54:47;99709.41;;;17.05;81.86
74905;BME280;63465;50.862;6.220;2023-06-14T01:57:12;99710.31;;;17.28;80.67
74905;BME280;63465;50.862;6.220;2023-06-14T01:59:38;99710.06;;;17.31;80.31
74905;BME280;63465;50.862;6.220;2023-06-14T02:02:03;99709.53;;;17.15;81.21
74905;BME280;63465;50.862;6.220;2023-06-14T02:04:29;99706.69;;;16.81;83.10
74905;BME280;63465;50.862;6.220;2023-06-14T02:06:54;99712.56;;;16.37;86.16
74905;BME280;63465;50.862;6.220;2023-06-14T02:09:19;99714.47;;;16.11;88.75
74905;BME280;63465;50.862;6.220;2023-06-14T02:11:45;99714.72;;;16.56;86.20
74905;BME280;63465;50.862;6.220;2023-06-14T02:14:10;99715.34;;;16.84;84.62
74905;BME280;63465;50.862;6.220;2023-06-14T02:16:37;99710.47;;;16.78;84.25
74905;BME280;63465;50.862;6.220;2023-06-14T02:19:04;99712.25;;;16.66;85.24
74905;BME280;63465;50.862;6.220;2023-06-14T02:21:29;99714.16;;;16.40;86.93
74905;BME280;63465;50.862;6.220;2023-06-14T02:23:55;99712.59;;;16.62;85.22
74905;BME280;63465;50.862;6.220;2023-06-14T02:26:20;99713.34;;;16.14;87.48
74905;BME280;63465;50.862;6.220;2023-06-14T02:28:45;99702.81;;;16.36;86.26
74905;BME280;63465;50.862;6.220;2023-06-14T02:31:10;99706.31;;;16.13;86.79
74905;BME280;63465;50.862;6.220;2023-06-14T02:33:36;99713.81;;;16.08;88.12
74905;BME280;63465;50.862;6.220;2023-06-14T02:36:01;99717.69;;;15.91;88.43
74905;BME280;63465;50.862;6.220;2023-06-14T02:38:28;99720.03;;;15.95;89.58
74905;BME280;63465;50.862;6.220;2023-06-14T02:40:53;99712.56;;;16.00;88.99
74905;BME280;63465;50.862;6.220;2023-06-14T02:43:19;99712.22;;;15.92;90.71
74905;BME280;63465;50.862;6.220;2023-06-14T02:45:44;99718.63;;;16.02;89.40
74905;BME280;63465;50.862;6.220;2023-06-14T02:48:10;99720.59;;;16.00;90.39
74905;BME280;63465;50.862;6.220;2023-06-14T02:50:36;99720.38;;;16.03;89.75
74905;BME280;63465;50.862;6.220;2023-06-14T02:53:01;99716.63;;;15.55;93.47
74905;BME280;63465;50.862;6.220;2023-06-14T02:55:28;99715.78;;;15.80;95.29
74905;BME280;63465;50.862;6.220;2023-06-14T02:57:53;99719.84;;;15.85;93.71
74905;BME280;63465;50.862;6.220;2023-06-14T03:00:19;99727.94;;;15.97;94.74
74905;BME280;63465;50.862;6.220;2023-06-14T03:02:44;99721.97;;;15.93;94.74
74905;BME280;63465;50.862;6.220;2023-06-14T03:05:10;99728.38;;;15.91;95.22
74905;BME280;63465;50.862;6.220;2023-06-14T03:07:36;99730.25;;;16.27;93.34
74905;BME280;63465;50.862;6.220;2023-06-14T03:10:09;99729.69;;;15.98;94.33
74905;BME280;63465;50.862;6.220;2023-06-14T03:12:35;99734.81;;;16.01;94.01
74905;BME280;63465;50.862;6.220;2023-06-14T03:15:01;99736.19;;;16.07;94.03
74905;BME280;63465;50.862;6.220;2023-06-14T03:17:27;99744.56;;;15.89;95.25
74905;BME280;63465;50.862;6.220;2023-06-14T03:19:55;99738.31;;;15.76;95.98
74905;BME280;63465;50.862;6.220;2023-06-14T03:22:20;99741.75;;;16.16;94.38
74905;BME280;63465;50.862;6.220;2023-06-14T03:24:47;99733.53;;;16.07;93.70
74905;BME280;63465;50.862;6.220;2023-06-14T03:27:13;99738.00;;;16.19;93.34
74905;BME280;63465;50.862;6.220;2023-06-14T03:29:39;99733.94;;;15.49;97.91
74905;BME280;63465;50.862;6.220;2023-06-14T03:32:05;99744.78;;;15.20;100.00
74905;BME280;63465;50.862;6.220;2023-06-14T03:34:30;99735.81;;;15.21;100.00
74905;BME280;63465;50.862;6.220;2023-06-14T03:36:56;99752.53;;;15.38;100.00
74905;BME280;63465;50.862;6.220;2023-06-14T03:39:21;99753.56;;;15.88;99.09
74905;BME280;63465;50.862;6.220;2023-06-14T03:41:46;99745.72;;;16.11;96.12
74905;BME280;63465;50.862;6.220;2023-06-14T03:44:17;99746.56;;;15.73;97.71
74905;BME280;63465;50.862;6.220;2023-06-14T03:46:43;99756.22;;;16.01;96.58
74905;BME280;63465;50.862;6.220;2023-06-14T03:49:08;99760.03;;;16.22;94.58
74905;BME280;63465;50.862;6.220;2023-06-14T03:51:35;99757.19;;;15.87;96.39
74905;BME280;63465;50.862;6.220;2023-06-14T03:54:00;99754.16;;;15.66;98.11
74905;BME280;63465;50.862;6.220;2023-06-14T03:56:26;99751.50;;;15.79;97.04
74905;BME280;63465;50.862;6.220;2023-06-14T03:58:52;99757.41;;;16.10;95.93
74905;BME280;63465;50.862;6.220;2023-06-14T04:01:17;99752.25;;;15.94;95.82
74905;BME280;63465;50.862;6.220;2023-06-14T04:03:42;99759.94;;;16.24;94.25
74905;BME280;63465;50.862;6.220;2023-06-14T04:06:08;99757.53;;;16.32;93.70
74905;BME280;63465;50.862;6.220;2023-06-14T04:08:34;99761.09;;;16.33;94.45
74905;BME280;63465;50.862;6.220;2023-06-14T04:11:00;99770.28;;;16.41;93.53
74905;BME280;63465;50.862;6.220;2023-06-14T04:13:25;99770.75;;;16.22;94.74
74905;BME280;63465;50.862;6.220;2023-06-14T04:15:51;99772.81;;;16.56;93.04
74905;BME280;63465;50.862;6.220;2023-06-14T04:18:16;99774.63;;;16.05;94.86
74905;BME280;63465;50.862;6.220;2023-06-14T04:20:42;99765.41;;;16.22;92.01
74905;BME280;63465;50.862;6.220;2023-06-14T04:23:13;99766.84;;;16.39;91.00
74905;BME280;63465;50.862;6.220;2023-06-14T04:25:39;99767.63;;;16.66;90.29
74905;BME280;63465;50.862;6.220;2023-06-14T04:28:05;99769.25;;;16.68;91.59
74905;BME280;63465;50.862;6.220;2023-06-14T04:30:30;99767.81;;;16.51;92.85
74905;BME280;63465;50.862;6.220;2023-06-14T04:32:56;99771.97;;;16.80;91.63
74905;BME280;63465;50.862;6.220;2023-06-14T04:35:22;99772.94;;;16.91;88.48
74905;BME280;63465;50.862;6.220;2023-06-14T04:37:49;99779.69;;;16.60;88.10
74905;BME280;63465;50.862;6.220;2023-06-14T04:40:14;99772.13;;;17.02;86.39
74905;BME280;63465;50.862;6.220;2023-06-14T04:42:40;99777.69;;;16.75;89.19
74905;BME280;63465;50.862;6.220;2023-06-14T04:45:06;99776.56;;;16.03;100.00
74905;BME280;63465;50.862;6.220;2023-06-14T04:47:32;99781.81;;;15.92;100.00
74905;BME280;63465;50.862;6.220;2023-06-14T04:49:59;99781.25;;;16.00;100.00
74905;BME280;63465;50.862;6.220;2023-06-14T04:52:25;99788.53;;;16.23;100.00
74905;BME280;63465;50.862;6.220;2023-06-14T04:54:52;99783.19;;;16.61;100.00
74905;BME280;63465;50.862;6.220;2023-06-14T04:57:19;99784.69;;;17.02;95.24
74905;BME280;63465;50.862;6.220;2023-06-14T04:59:47;99791.59;;;16.93;88.46
74905;BME280;63465;50.862;6.220;2023-06-14T05:02:12;99790.63;;;17.18;88.87
74905;BME280;63465;50.862;6.220;2023-06-14T05:04:38;99789.97;;;17.15;89.15
74905;BME280;63465;50.862;6.220;2023-06-14T05:07:09;99787.38;;;17.26;87.56
74905;BME280;63465;50.862;6.220;2023-06-14T05:09:37;99799.66;;;17.28;85.70
74905;BME280;63465;50.862;6.220;2023-06-14T05:12:03;99790.69;;;17.41;84.63
74905;BME280;63465;50.862;6.220;2023-06-14T05:14:28;99793.91;;;17.57;83.84
74905;BME280;63465;50.862;6.220;2023-06-14T05:16:53;99800.41;;;17.66;82.47
74905;BME280;63465;50.862;6.220;2023-06-14T05:19:19;99795.75;;;17.57;81.02
74905;BME280;63465;50.862;6.220;2023-06-14T05:21:47;99795.16;;;17.64;82.03
74905;BME280;63465;50.862;6.220;2023-06-14T05:24:13;99802.03;;;17.80;80.92
74905;BME280;63465;50.862;6.220;2023-06-14T05:26:38;99795.84;;;17.91;80.63
74905;BME280;63465;50.862;6.220;2023-06-14T05:29:04;99805.78;;;17.77;80.13
74905;BME280;63465;50.862;6.220;2023-06-14T05:31:29;99805.38;;;17.95;79.48
74905;BME280;63465;50.862;6.220;2023-06-14T05:33:54;99800.41;;;17.77;79.85
74905;BME280;63465;50.862;6.220;2023-06-14T05:36:20;99800.00;;;17.95;79.91
74905;BME280;63465;50.862;6.220;2023-06-14T05:38:48;99800.72;;;18.08;79.58
74905;BME280;63465;50.862;6.220;2023-06-14T05:41:15;99812.72;;;18.15;79.26
74905;BME280;63465;50.862;6.220;2023-06-14T05:43:41;99812.69;;;18.27;77.93
74905;BME280;63465;50.862;6.220;2023-06-14T05:46:06;99810.53;;;18.32;78.74
74905;BME280;63465;50.862;6.220;2023-06-14T05:48:31;99815.88;;;18.43;77.35
74905;BME280;63465;50.862;6.220;2023-06-14T05:50:57;99822.47;;;18.39;74.90
74905;BME280;63465;50.862;6.220;2023-06-14T05:53:22;99826.13;;;18.49;74.47
74905;BME280;63465;50.862;6.220;2023-06-14T05:55:48;99832.16;;;18.53;73.42
74905;BME280;63465;50.862;6.220;2023-06-14T05:58:14;99833.09;;;18.63;74.24
74905;BME280;63465;50.862;6.220;2023-06-14T06:00:39;99837.28;;;18.56;75.14
74905;BME280;63465;50.862;6.220;2023-06-14T06:03:05;99833.59;;;18.57;75.53
74905;BME280;63465;50.862;6.220;2023-06-14T06:05:33;99846.66;;;18.62;74.83
74905;BME280;63465;50.862;6.220;2023-06-14T06:07:58;99837.88;;;18.48;74.58
74905;BME280;63465;50.862;6.220;2023-06-14T06:10:23;99843.00;;;18.63;75.19
74905;BME280;63465;50.862;6.220;2023-06-14T06:12:49;99853.38;;;18.67;75.33
74905;BME280;63465;50.862;6.220;2023-06-14T06:15:17;99848.09;;;18.77;72.89
74905;BME280;63465;50.862;6.220;2023-06-14T06:17:43;99845.19;;;18.92;74.42
74905;BME280;63465;50.862;6.220;2023-06-14T06:20:09;99852.84;;;19.07;73.97
74905;BME280;63465;50.862;6.220;2023-06-14T06:22:36;99854.63;;;19.30;71.39
74905;BME280;63465;50.862;6.220;2023-06-14T06:25:01;99861.97;;;19.28;72.03
74905;BME280;63465;50.862;6.220;2023-06-14T06:27:27;99854.38;;;19.33;70.66
74905;BME280;63465;50.862;6.220;2023-06-14T06:29:53;99858.84;;;19.11;72.36
74905;BME280;63465;50.862;6.220;2023-06-14T06:32:18;99860.28;;;19.48;69.92
74905;BME280;63465;50.862;6.220;2023-06-14T06:34:43;99849.94;;;19.64;69.75
74905;BME280;63465;50.862;6.220;2023-06-14T06:37:09;99859.25;;;19.39;68.33
74905;BME280;63465;50.862;6.220;2023-06-14T06:39:34;99855.47;;;20.26;65.34
74905;BME280;63465;50.862;6.220;2023-06-14T06:42:00;99855.31;;;20.18;64.86
74905;BME280;63465;50.862;6.220;2023-06-14T06:44:25;99858.78;;;20.60;62.05
74905;BME280;63465;50.862;6.220;2023-06-14T06:46:50;99866.91;;;20.70;60.35
74905;BME280;63465;50.862;6.220;2023-06-14T06:49:16;99861.78;;;20.36;59.13
74905;BME280;63465;50.862;6.220;2023-06-14T06:51:41;99872.34;;;20.80;57.81
74905;BME280;63465;50.862;6.220;2023-06-14T06:54:07;99881.84;;;20.84;58.24
74905;BME280;63465;50.862;6.220;2023-06-14T06:56:33;99867.19;;;21.08;57.73
74905;BME280;63465;50.862;6.220;2023-06-14T07:01:24;99881.59;;;21.77;56.42
74905;BME280;63465;50.862;6.220;2023-06-14T07:03:49;99886.56;;;21.71;57.98
74905;BME280;63465;50.862;6.220;2023-06-14T07:06:15;99885.94;;;22.36;54.99
74905;BME280;63465;50.862;6.220;2023-06-14T07:08:43;99888.63;;;22.26;53.59
74905;BME280;63465;50.862;6.220;2023-06-14T07:11:09;99898.75;;;22.34;53.22
74905;BME280;63465;50.862;6.220;2023-06-14T07:13:34;99898.91;;;22.03;52.79
74905;BME280;63465;50.862;6.220;2023-06-14T07:16:00;99892.97;;;22.00;53.11
74905;BME280;63465;50.862;6.220;2023-06-14T07:18:26;99891.56;;;21.66;53.18
74905;BME280;63465;50.862;6.220;2023-06-14T07:20:53;99896.81;;;22.92;50.16
74905;BME280;63465;50.862;6.220;2023-06-14T07:23:19;99894.81;;;21.80;51.64
74905;BME280;63465;50.862;6.220;2023-06-14T07:25:45;99904.19;;;22.15;50.26
74905;BME280;63465;50.862;6.220;2023-06-14T07:28:10;99898.97;;;22.51;50.20
74905;BME280;63465;50.862;6.220;2023-06-14T07:30:35;99901.63;;;22.70;50.02
74905;BME280;63465;50.862;6.220;2023-06-14T07:33:01;99902.44;;;22.80;49.41
74905;BME280;63465;50.862;6.220;2023-06-14T07:35:26;99902.81;;;23.23;47.43
74905;BME280;63465;50.862;6.220;2023-06-14T07:37:51;99896.56;;;23.59;47.08
74905;BME280;63465;50.862;6.220;2023-06-14T07:40:17;99901.09;;;23.22;48.28
74905;BME280;63465;50.862;6.220;2023-06-14T07:42:43;99906.75;;;23.01;47.95
74905;BME280;63465;50.862;6.220;2023-06-14T07:45:08;99904.31;;;23.36;46.20
74905;BME280;63465;50.862;6.220;2023-06-14T07:47:34;99907.72;;;24.10;44.82
74905;BME280;63465;50.862;6.220;2023-06-14T07:49:59;99899.38;;;23.85;45.33
74905;BME280;63465;50.862;6.220;2023-06-14T07:52:25;99900.50;;;24.71;43.58
74905;BME280;63465;50.862;6.220;2023-06-14T07:54:50;99898.88;;;24.95;42.18
74905;BME280;63465;50.862;6.220;2023-06-14T07:57:16;99900.69;;;24.51;41.18
74905;BME280;63465;50.862;6.220;2023-06-14T07:59:41;99891.78;;;24.93;39.77
74905;BME280;63465;50.862;6.220;2023-06-14T08:02:06;99903.44;;;24.33;41.48
74905;BME280;63465;50.862;6.220;2023-06-14T08:04:32;99904.63;;;24.83;40.06
74905;BME280;63465;50.862;6.220;2023-06-14T08:06:57;99906.09;;;24.69;40.68
74905;BME280;63465;50.862;6.220;2023-06-14T08:09:23;99909.72;;;23.54;42.19
74905;BME280;63465;50.862;6.220;2023-06-14T08:11:50;99913.81;;;23.58;40.73
74905;BME280;63465;50.862;6.220;2023-06-14T08:14:15;99916.47;;;23.85;41.28
74905;BME280;63465;50.862;6.220;2023-06-14T08:16:40;99912.56;;;24.77;40.21
74905;BME280;63465;50.862;6.220;2023-06-14T08:19:06;99907.75;;;25.05;39.54
74905;BME280;63465;50.862;6.220;2023-06-14T08:21:31;99919.09;;;25.43;38.88
74905;BME280;63465;50.862;6.220;2023-06-14T08:23:58;99912.09;;;24.81;37.95
74905;BME280;63465;50.862;6.220;2023-06-14T08:26:24;99920.81;;;24.67;37.11
74905;BME280;63465;50.862;6.220;2023-06-14T08:28:54;99911.00;;;24.66;38.71
74905;BME280;63465;50.862;6.220;2023-06-14T08:31:20;99915.28;;;25.19;38.56
74905;BME280;63465;50.862;6.220;2023-06-14T08:33:46;99921.91;;;26.17;36.33
74905;BME280;63465;50.862;6.220;2023-06-14T08:36:11;99912.19;;;25.06;38.20
74905;BME280;63465;50.862;6.220;2023-06-14T08:38:37;99914.56;;;25.52;37.53
74905;BME280;63465;50.862;6.220;2023-06-14T08:41:05;99910.94;;;25.35;37.76
74905;BME280;63465;50.862;6.220;2023-06-14T08:43:33;99913.44;;;25.28;37.86
74905;BME280;63465;50.862;6.220;2023-06-14T08:46:02;99905.78;;;25.23;38.85
74905;BME280;63465;50.862;6.220;2023-06-14T08:48:28;99908.47;;;25.83;36.14
74905;BME280;63465;50.862;6.220;2023-06-14T08:50:55;99908.22;;;26.58;35.34
74905;BME280;63465;50.862;6.220;2023-06-14T08:53:28;99904.56;;;26.02;37.27
74905;BME280;63465;50.862;6.220;2023-06-14T08:55:54;99912.56;;;26.03;36.61
74905;BME280;63465;50.862;6.220;2023-06-14T08:58:20;99912.78;;;26.82;34.96
74905;BME280;63465;50.862;6.220;2023-06-14T09:00:49;99912.91;;;26.97;36.32
74905;BME280;63465;50.862;6.220;2023-06-14T09:03:15;99908.81;;;26.29;35.65
74905;BME280;63465;50.862;6.220;2023-06-14T09:05:40;99910.34;;;25.98;36.51
74905;BME280;63465;50.862;6.220;2023-06-14T09:08:06;99910.84;;;26.19;34.92
74905;BME280;63465;50.862;6.220;2023-06-14T09:10:32;99915.09;;;26.21;36.96
74905;BME280;63465;50.862;6.220;2023-06-14T09:13:03;99912.13;;;27.20;33.20
74905;BME280;63465;50.862;6.220;2023-06-14T09:15:30;99912.69;;;26.51;34.67
74905;BME280;63465;50.862;6.220;2023-06-14T09:17:55;99911.03;;;26.98;34.46
74905;BME280;63465;50.862;6.220;2023-06-14T09:20:23;99916.28;;;26.19;35.44
74905;BME280;63465;50.862;6.220;2023-06-14T09:22:49;99920.56;;;26.94;34.61
74905;BME280;63465;50.862;6.220;2023-06-14T09:25:14;99920.91;;;26.91;35.20
74905;BME280;63465;50.862;6.220;2023-06-14T09:27:40;99916.75;;;26.63;34.56
74905;BME280;63465;50.862;6.220;2023-06-14T09:30:09;99913.84;;;27.13;34.45
74905;BME280;63465;50.862;6.220;2023-06-14T09:32:38;99922.75;;;26.98;33.42
74905;BME280;63465;50.862;6.220;2023-06-14T09:35:07;99919.44;;;27.19;33.32
74905;BME280;63465;50.862;6.220;2023-06-14T09:37:33;99921.63;;;27.32;32.76
74905;BME280;63465;50.862;6.220;2023-06-14T09:39:59;99911.06;;;26.01;33.49
74905;BME280;63465;50.862;6.220;2023-06-14T09:42:25;99914.31;;;26.77;32.46
74905;BME280;63465;50.862;6.220;2023-06-14T09:44:52;99915.00;;;27.81;31.25
74905;BME280;63465;50.862;6.220;2023-06-14T09:47:19;99916.50;;;26.01;34.21
74905;BME280;63465;50.862;6.220;2023-06-14T09:49:44;99915.28;;;26.92;34.24
74905;BME280;63465;50.862;6.220;2023-06-14T09:52:20;99907.22;;;26.76;33.24
74905;BME280;63465;50.862;6.220;2023-06-14T09:54:47;99910.50;;;26.22;32.98
74905;BME280;63465;50.862;6.220;2023-06-14T09:57:15;99912.31;;;26.79;31.64
74905;BME280;63465;50.862;6.220;2023-06-14T09:59:45;99905.66;;;27.52;32.26
74905;BME280;63465;50.862;6.220;2023-06-14T10:02:24;99908.91;;;26.68;33.13
74905;BME280;63465;50.862;6.220;2023-06-14T10:04:56;99906.28;;;26.92;33.33
74905;BME280;63465;50.862;6.220;2023-06-14T10:07:24;99908.41;;;26.65;33.25
74905;BME280;63465;50.862;6.220;2023-06-14T10:09:53;99909.09;;;27.46;35.32
74905;BME280;63465;50.862;6.220;2023-06-14T10:12:19;99900.59;;;27.41;31.68
74905;BME280;63465;50.862;6.220;2023-06-14T10:14:49;99905.94;;;26.95;31.25
74905;BME280;63465;50.862;6.220;2023-06-14T10:17:33;99910.66;;;27.40;32.01
74905;BME280;63465;50.862;6.220;2023-06-14T10:20:19;99898.56;;;27.66;30.55
74905;BME280;63465;50.862;6.220;2023-06-14T10:22:54;99900.97;;;27.61;27.31
74905;BME280;63465;50.862;6.220;2023-06-14T10:25:30;99909.03;;;27.54;28.90
74905;BME280;63465;50.862;6.220;2023-06-14T10:33:27;99912.88;;;26.41;29.47
74905;BME280;63465;50.862;6.220;2023-06-14T10:36:07;99896.03;;;27.65;27.59
74905;BME280;63465;50.862;6.220;2023-06-14T10:38:33;99898.09;;;28.09;26.33
74905;BME280;63465;50.862;6.220;2023-06-14T10:40:59;99895.78;;;27.98;27.33
74905;BME280;63465;50.862;6.220;2023-06-14T10:43:25;99902.75;;;27.54;26.41
74905;BME280;63465;50.862;6.220;2023-06-14T10:46:14;99892.03;;;29.11;26.10
74905;BME280;63465;50.862;6.220;2023-06-14T10:48:41;99898.31;;;27.99;26.44
74905;BME280;63465;50.862;6.220;2023-06-14T10:51:15;99908.81;;;28.10;27.30
74905;BME280;63465;50.862;6.220;2023-06-14T10:53:42;99898.94;;;27.40;28.27
74905;BME280;63465;50.862;6.220;2023-06-14T10:56:08;99908.63;;;28.27;26.27
74905;BME280;63465;50.862;6.220;2023-06-14T10:58:33;99894.69;;;28.07;27.69
74905;BME280;63465;50.862;6.220;2023-06-14T11:00:58;99906.75;;;26.95;26.96
74905;BME280;63465;50.862;6.220;2023-06-14T11:03:50;99893.34;;;27.25;28.96
74905;BME280;63465;50.862;6.220;2023-06-14T11:06:22;99897.69;;;27.11;30.29
74905;BME280;63465;50.862;6.220;2023-06-14T11:11:32;99895.84;;;27.03;28.57
74905;BME280;63465;50.862;6.220;2023-06-14T11:13:59;99899.03;;;26.76;30.37
74905;BME280;63465;50.862;6.220;2023-06-14T11:16:26;99899.72;;;26.61;31.51
74905;BME280;63465;50.862;6.220;2023-06-14T11:18:53;99893.25;;;26.62;31.38
74905;BME280;63465;50.862;6.220;2023-06-14T11:21:18;99902.53;;;26.20;30.43
74905;BME280;63465;50.862;6.220;2023-06-14T11:23:51;99900.50;;;25.97;31.21
74905;BME280;63465;50.862;6.220;2023-06-14T11:26:24;99895.72;;;26.24;31.37
74905;BME280;63465;50.862;6.220;2023-06-14T11:28:55;99897.56;;;27.04;30.61
74905;BME280;63465;50.862;6.220;2023-06-14T11:31:21;99893.72;;;26.82;30.67
74905;BME280;63465;50.862;6.220;2023-06-14T11:33:49;99894.88;;;26.24;30.70
74905;BME280;63465;50.862;6.220;2023-06-14T11:36:15;99898.06;;;25.61;31.79
74905;BME280;63465;50.862;6.220;2023-06-14T11:38:40;99897.75;;;26.95;29.86
74905;BME280;63465;50.862;6.220;2023-06-14T11:41:06;99888.38;;;26.41;33.97
74905;BME280;63465;50.862;6.220;2023-06-14T11:43:31;99893.78;;;26.58;33.88
74905;BME280;63465;50.862;6.220;2023-06-14T11:45:58;99890.28;;;26.08;35.01
74905;BME280;63465;50.862;6.220;2023-06-14T11:48:35;99898.31;;;26.01;34.69
74905;BME280;63465;50.862;6.220;2023-06-14T11:51:01;99888.91;;;25.71;36.18
74905;BME280;63465;50.862;6.220;2023-06-14T11:53:26;99897.66;;;26.80;34.70
74905;BME280;63465;50.862;6.220;2023-06-14T11:55:51;99896.88;;;25.56;35.76
74905;BME280;63465;50.862;6.220;2023-06-14T11:58:18;99894.69;;;25.92;36.35
74905;BME280;63465;50.862;6.220;2023-06-14T12:00:43;99897.03;;;25.54;37.46
74905;BME280;63465;50.862;6.220;2023-06-14T12:03:08;99904.19;;;25.47;37.37
74905;BME280;63465;50.862;6.220;2023-06-14T12:05:34;99903.22;;;25.22;37.29
74905;BME280;63465;50.862;6.220;2023-06-14T12:08:01;99895.38;;;24.68;36.73
74905;BME280;63465;50.862;6.220;2023-06-14T12:10:27;99895.03;;;24.63;36.27
74905;BME280;63465;50.862;6.220;2023-06-14T12:12:57;99889.47;;;25.23;37.19
74905;BME280;63465;50.862;6.220;2023-06-14T12:15:23;99894.13;;;24.88;38.67
74905;BME280;63465;50.862;6.220;2023-06-14T12:17:48;99898.78;;;25.04;36.33
74905;BME280;63465;50.862;6.220;2023-06-14T12:20:14;99892.63;;;25.45;36.99
74905;BME280;63465;50.862;6.220;2023-06-14T12:25:33;99900.81;;;24.42;36.53
74905;BME280;63465;50.862;6.220;2023-06-14T12:28:06;99898.09;;;24.68;35.84
74905;BME280;63465;50.862;6.220;2023-06-14T12:30:32;99906.97;;;24.78;36.67
74905;BME280;63465;50.862;6.220;2023-06-14T12:32:58;99900.78;;;25.61;36.02
74905;BME280;63465;50.862;6.220;2023-06-14T12:35:23;99905.34;;;25.44;35.59
74905;BME280;63465;50.862;6.220;2023-06-14T12:37:48;99897.88;;;24.96;33.95
74905;BME280;63465;50.862;6.220;2023-06-14T12:40:14;99894.91;;;25.15;36.01
74905;BME280;63465;50.862;6.220;2023-06-14T12:42:44;99897.53;;;25.50;35.97
74905;BME280;63465;50.862;6.220;2023-06-14T12:45:10;99891.59;;;25.54;35.22
74905;BME280;63465;50.862;6.220;2023-06-14T12:47:36;99892.75;;;24.84;35.62
74905;BME280;63465;50.862;6.220;2023-06-14T12:50:01;99890.03;;;25.27;35.57
74905;BME280;63465;50.862;6.220;2023-06-14T12:52:26;99898.13;;;25.19;36.71
74905;BME280;63465;50.862;6.220;2023-06-14T12:54:52;99889.31;;;25.17;35.30
74905;BME280;63465;50.862;6.220;2023-06-14T12:57:17;99899.06;;;24.93;36.51
74905;BME280;63465;50.862;6.220;2023-06-14T12:59:42;99891.81;;;25.77;33.00
74905;BME280;63465;50.862;6.220;2023-06-14T13:02:15;99893.34;;;25.13;35.18
74905;BME280;63465;50.862;6.220;2023-06-14T13:04:41;99893.94;;;24.90;35.61
74905;BME280;63465;50.862;6.220;2023-06-14T13:07:06;99888.94;;;25.79;35.50
74905;BME280;63465;50.862;6.220;2023-06-14T13:09:32;99891.56;;;25.30;35.39
74905;BME280;63465;50.862;6.220;2023-06-14T13:11:57;99888.81;;;24.79;36.10